Anchorage, AK (99515)

7:38 AM AKST on February 13, 2016 (GMT -0900)
Oceanview | | Change Station
CLOSE
Current Station
Personal Weather Station
Location: Anchorage, AK
Elevation: 75 ft
Nearby Weather Stations

Elev 75 ft 61.11 °N, 149.91 °W | Updated 3 seconds ago

Overcast
Overcast
38.1 °F
Feels Like 35 °F
N
3.8
Wind Variable Wind from SSW
Gusts 15.2 mph

Today
High -- | Low -- °F
--% Chance of Precip.
Yesterday
High -- | Low -- °F
Precip. -- in
Pressure 29.42 in
Visibility 10.0 miles
Clouds Overcast 10000 ft
Windchill 35 °F
Dew Point 29 °F
Humidity 69%
Rainfall 0.00 in
Snow Depth Not available.
8:48 AM 5:40 PM
Waxing Crescent, 32% visible
METAR PALH 131553Z VRB03KT 10SM OVC100 01/M03 A2941 RMK AO2 SLP960 T00111028
Pressure 29.42 in
Visibility 10.0 miles
Clouds Overcast 10000 ft
Windchill 35 °F
Dew Point 29 °F
Humidity 69%
Rainfall 0.00 in
Snow Depth Not available.
8:48 AM 5:40 PM
Waxing Crescent, 32% visible
METAR PALH 131553Z VRB03KT 10SM OVC100 01/M03 A2941 RMK AO2 SLP960 T00111028

10-Day Weather Forecast

Almanac

Astronomy

Feb. 13, 2016 Rise Set
Actual Time
Civil Twilight
Nautical Twilight
Astronomical Twilight
Moon
Length of Visible Light
Length of Day
Tomorrow will be .
, % of the Moon is Illuminated

Today's Extremes

State Highs State Lows

Community

WunderPhotos

Upload Photos

1,892,600 photos uploaded!

WunderBlog® & News

Nearby

Air Quality

  Air Quality AQ Index Pollutant
Not available.

Snow Depth

Station Depth Elevation

Earthquake Activity

City Distance Mag. Time & Date
Minimum magnitude displayed is 2.5.

Coastal Water Temperatures

Place Temperature

Stations

Nearby Weather Stations

Station Location Temp. Windchill Dew Point Humidity Wind Precip. Elev Updated Type
                   

Watches & Warnings

There are currently no watches in effect.